createdAt,value
2018-06-18T00:02:17.755Z,19.82
2018-06-18T00:04:47.196Z,19.83
2018-06-18T00:07:16.729Z,19.75
2018-06-18T00:09:46.288Z,19.87
2018-06-18T00:12:15.702Z,19.78
2018-06-18T00:14:45.106Z,19.74
2018-06-18T00:17:14.605Z,19.42
2018-06-18T00:19:44.060Z,19.68
2018-06-18T00:22:17.894Z,19.53
2018-06-18T00:24:48.926Z,19.36
2018-06-18T00:27:18.381Z,19.57
2018-06-18T00:29:47.852Z,19.47
2018-06-18T00:32:17.466Z,19.38
2018-06-18T00:34:46.903Z,19.52
2018-06-18T00:37:16.313Z,19.52
2018-06-18T00:39:45.692Z,19.72
2018-06-18T00:42:15.158Z,19.55
2018-06-18T00:44:44.637Z,19.69
2018-06-18T00:47:14.053Z,19.75
2018-06-18T00:49:43.504Z,19.84
2018-06-18T00:52:12.730Z,19.83
2018-06-18T00:54:42.161Z,19.87
2018-06-18T00:57:11.588Z,19.93
2018-06-18T00:59:41.174Z,19.64
2018-06-18T01:02:10.649Z,19.55
2018-06-18T01:04:40.070Z,19.76
2018-06-18T01:07:09.579Z,19.85
2018-06-18T01:09:39.133Z,19.70
2018-06-18T01:12:08.620Z,19.87
2018-06-18T01:14:38.228Z,19.85
2018-06-18T01:17:07.755Z,19.79
2018-06-18T01:19:36.905Z,19.80
2018-06-18T01:22:06.952Z,19.85
2018-06-18T01:24:52.206Z,19.92
2018-06-18T01:27:21.838Z,19.86
2018-06-18T01:29:51.325Z,19.92
2018-06-18T01:32:20.754Z,19.99
2018-06-18T01:34:50.162Z,19.98
2018-06-18T01:37:19.639Z,19.79
2018-06-18T01:39:49.180Z,20.04
2018-06-18T01:42:18.600Z,19.76
2018-06-18T01:44:48.018Z,19.84
2018-06-18T01:47:17.527Z,19.78
2018-06-18T01:49:46.958Z,19.80
2018-06-18T01:52:16.389Z,19.53
2018-06-18T01:54:45.944Z,19.76
2018-06-18T01:57:15.387Z,19.61
2018-06-18T01:59:44.817Z,19.60
2018-06-18T02:02:14.239Z,19.80
2018-06-18T02:04:43.744Z,19.70
2018-06-18T02:07:13.272Z,19.82
2018-06-18T02:09:42.719Z,19.86
2018-06-18T02:12:12.134Z,19.64
2018-06-18T02:14:41.631Z,19.65
2018-06-18T02:17:11.101Z,19.67
2018-06-18T02:19:40.611Z,19.68
2018-06-18T02:22:10.176Z,19.67
2018-06-18T02:24:39.635Z,19.70
2018-06-18T02:27:14.159Z,19.80
2018-06-18T02:29:48.795Z,19.77
2018-06-18T02:32:23.494Z,19.79
2018-06-18T02:34:58.170Z,19.65
2018-06-18T02:37:32.774Z,19.70
2018-06-18T02:40:07.336Z,19.71
2018-06-18T02:42:37.810Z,19.64
2018-06-18T02:45:07.337Z,19.28
2018-06-18T02:47:36.828Z,19.48
2018-06-18T02:50:06.289Z,19.37
2018-06-18T02:52:35.817Z,19.39
2018-06-18T02:55:05.608Z,19.46
2018-06-18T02:57:35.136Z,19.48
2018-06-18T03:00:04.819Z,19.45
2018-06-18T03:02:34.320Z,19.40
2018-06-18T03:05:03.806Z,19.39
2018-06-18T03:07:33.254Z,19.41
2018-06-18T03:10:02.678Z,19.47
2018-06-18T03:12:32.181Z,19.56
2018-06-18T03:15:01.632Z,19.45
2018-06-18T03:17:31.110Z,19.47
2018-06-18T03:20:05.807Z,19.55
2018-06-18T03:22:40.234Z,19.67
2018-06-18T03:25:15.011Z,19.58
2018-06-18T03:27:49.606Z,19.52
2018-06-18T03:30:19.170Z,19.54
2018-06-18T03:32:49.774Z,19.50
2018-06-18T03:35:18.941Z,19.52
2018-06-18T03:37:48.695Z,19.63
2018-06-18T03:40:17.989Z,19.58
2018-06-18T03:42:47.409Z,19.56
2018-06-18T03:45:21.500Z,19.50
2018-06-18T03:47:50.938Z,19.42
2018-06-18T03:50:20.396Z,19.39
2018-06-18T03:52:50.056Z,19.36
2018-06-18T03:55:32.672Z,19.61
2018-06-18T03:58:07.872Z,19.54
2018-06-18T04:03:01.698Z,19.61
2018-06-18T04:05:36.491Z,19.59
2018-06-18T04:08:13.757Z,19.62
2018-06-18T04:10:48.524Z,19.54
2018-06-18T04:13:18.043Z,19.59
2018-06-18T04:15:47.596Z,19.61
2018-06-18T04:18:17.003Z,19.61
2018-06-18T04:20:49.556Z,19.56
2018-06-18T04:23:19.046Z,19.74
2018-06-18T04:25:48.607Z,19.71
2018-06-18T04:28:18.147Z,19.50
2018-06-18T04:30:48.184Z,19.29
2018-06-18T04:33:22.408Z,19.52
2018-06-18T04:35:51.993Z,19.50
2018-06-18T04:38:21.599Z,19.21
2018-06-18T04:40:51.259Z,19.52
2018-06-18T04:43:26.028Z,19.74
2018-06-18T04:46:00.733Z,19.73
2018-06-18T04:48:35.307Z,19.57
2018-06-18T04:51:04.928Z,20.05
2018-06-18T04:53:34.485Z,20.21
2018-06-18T04:56:04.030Z,20.13
2018-06-18T04:58:33.502Z,20.26
2018-06-18T05:01:14.903Z,20.26
2018-06-18T05:03:44.336Z,20.13
2018-06-18T05:06:13.871Z,20.20
2018-06-18T05:10:54.710Z,20.21
2018-06-18T05:13:24.175Z,20.15
2018-06-18T05:15:54.894Z,20.10
2018-06-18T05:18:24.528Z,20.07
2018-06-18T05:20:54.259Z,20.23
2018-06-18T05:23:23.886Z,20.12
2018-06-18T05:25:58.567Z,20.37
2018-06-18T05:28:28.116Z,20.27
2018-06-18T05:30:58.303Z,20.45
2018-06-18T05:33:27.852Z,20.51
2018-06-18T05:35:57.259Z,20.54
2018-06-18T05:38:31.539Z,20.78
2018-06-18T05:41:01.302Z,20.81
2018-06-18T05:43:31.342Z,20.88
2018-06-18T05:46:01.055Z,20.80
2018-06-18T05:48:30.661Z,20.52
2018-06-18T05:51:00.235Z,20.34
2018-06-18T05:53:30.799Z,20.19
2018-06-18T05:56:00.245Z,20.58
2018-06-18T05:58:29.936Z,20.58
2018-06-18T06:00:59.472Z,20.46
2018-06-18T06:03:28.884Z,20.74
2018-06-18T06:05:58.416Z,20.77
2018-06-18T06:08:27.957Z,21.18
2018-06-18T06:11:00.632Z,21.11
2018-06-18T06:13:30.383Z,21.26
2018-06-18T06:16:01.900Z,21.22
2018-06-18T06:18:31.353Z,21.15
2018-06-18T06:21:10.468Z,21.19
2018-06-18T06:23:40.010Z,21.67
2018-06-18T06:26:09.713Z,21.57
2018-06-18T06:28:39.230Z,21.44
2018-06-18T06:31:08.677Z,21.28
2018-06-18T06:33:38.219Z,21.45
2018-06-18T06:36:09.784Z,21.58
2018-06-18T06:38:39.395Z,21.55
2018-06-18T06:41:10.324Z,21.78
2018-06-18T06:43:39.764Z,22.16
2018-06-18T06:46:09.315Z,22.04
2018-06-18T06:48:38.850Z,21.13
2018-06-18T06:51:08.429Z,21.87
2018-06-18T06:53:37.899Z,22.21
2018-06-18T06:56:07.416Z,22.16
2018-06-18T06:58:36.994Z,22.29
2018-06-18T07:01:06.585Z,22.21
2018-06-18T07:03:35.998Z,22.08
2018-06-18T07:06:05.435Z,22.15
2018-06-18T07:08:35.040Z,22.12
2018-06-18T07:11:04.636Z,22.16
2018-06-18T07:13:34.108Z,21.95
2018-06-18T07:16:03.578Z,22.07
2018-06-18T07:18:33.076Z,21.97
2018-06-18T07:21:02.725Z,22.05
2018-06-18T07:23:32.145Z,22.14
2018-06-18T07:26:01.713Z,22.30
2018-06-18T07:28:31.271Z,22.07
2018-06-18T07:31:00.684Z,22.42
2018-06-18T07:33:30.162Z,22.19
2018-06-18T07:35:59.688Z,22.31
2018-06-18T07:38:29.247Z,22.31
2018-06-18T07:40:58.741Z,21.91
2018-06-18T07:43:28.225Z,22.34
2018-06-18T07:45:57.815Z,22.15
2018-06-18T07:48:27.396Z,22.73
2018-06-18T07:50:56.827Z,22.73
2018-06-18T07:53:26.295Z,23.29
2018-06-18T07:55:55.828Z,23.24
2018-06-18T07:58:25.330Z,22.82
2018-06-18T08:00:54.804Z,23.14
2018-06-18T08:03:24.351Z,23.05
2018-06-18T08:05:53.788Z,23.40
2018-06-18T08:08:23.211Z,23.80
2018-06-18T08:10:52.677Z,23.59
2018-06-18T08:13:22.153Z,23.45
2018-06-18T08:15:51.627Z,23.11
2018-06-18T08:18:21.046Z,23.12
2018-06-18T08:20:50.703Z,23.29
2018-06-18T08:23:20.324Z,23.27
2018-06-18T08:25:49.837Z,23.41
2018-06-18T08:28:19.332Z,23.47
2018-06-18T08:30:48.840Z,23.77
2018-06-18T08:33:18.423Z,23.39
2018-06-18T08:35:47.840Z,23.24
2018-06-18T08:38:17.276Z,23.59
2018-06-18T08:40:46.889Z,23.44
2018-06-18T08:43:16.529Z,23.84
2018-06-18T08:45:46.097Z,23.91
2018-06-18T08:48:20.637Z,23.54
2018-06-18T08:50:55.340Z,23.27
2018-06-18T08:53:29.951Z,23.13
2018-06-18T08:56:04.532Z,23.30
2018-06-18T08:58:39.147Z,23.08
2018-06-18T09:01:10.332Z,23.17
2018-06-18T09:03:44.987Z,23.43
2018-06-18T09:06:14.432Z,23.65
2018-06-18T09:08:49.064Z,23.60
2018-06-18T09:11:19.952Z,23.82
2018-06-18T09:13:49.404Z,23.46
2018-06-18T09:16:18.837Z,23.52
2018-06-18T09:18:48.406Z,24.21
2018-06-18T09:21:17.972Z,24.70
2018-06-18T09:23:47.469Z,24.70
2018-06-18T09:26:16.890Z,24.14
2018-06-18T09:28:46.424Z,24.28
2018-06-18T09:31:15.936Z,24.41
2018-06-18T09:33:45.922Z,24.31
2018-06-18T09:36:15.375Z,24.50
2018-06-18T09:38:44.919Z,25.09
2018-06-18T09:41:14.511Z,25.51
2018-06-18T09:43:43.919Z,25.12
2018-06-18T09:46:13.508Z,25.06
2018-06-18T09:48:48.064Z,24.49
2018-06-18T09:51:22.913Z,23.93
2018-06-18T09:53:57.376Z,24.48
2018-06-18T09:56:32.228Z,24.93
2018-06-18T09:59:06.899Z,24.98
2018-06-18T10:01:36.447Z,24.86
2018-06-18T10:04:06.141Z,24.62
2018-06-18T10:06:38.485Z,24.05
2018-06-18T10:09:09.148Z,24.15
2018-06-18T10:11:38.729Z,24.13
2018-06-18T10:14:11.318Z,24.21
2018-06-18T10:16:40.788Z,24.53
2018-06-18T10:19:10.365Z,24.23
2018-06-18T10:21:39.951Z,23.85
2018-06-18T10:24:09.428Z,24.02
2018-06-18T10:26:38.961Z,24.23
2018-06-18T10:29:08.489Z,24.83
2018-06-18T10:31:38.099Z,25.54
2018-06-18T10:34:12.820Z,25.26
2018-06-18T10:37:46.002Z,25.81
2018-06-18T10:40:20.899Z,25.52
2018-06-18T10:42:55.563Z,25.13
2018-06-18T10:45:25.144Z,25.28
2018-06-18T10:47:54.699Z,25.03
2018-06-18T10:50:24.188Z,25.12
2018-06-18T10:52:53.766Z,25.17
2018-06-18T10:55:23.325Z,24.88
2018-06-18T10:57:52.818Z,24.36
2018-06-18T11:00:25.458Z,24.81
2018-06-18T11:02:55.675Z,25.01
2018-06-18T11:05:30.363Z,25.30
2018-06-18T11:07:59.889Z,25.60
2018-06-18T11:10:29.391Z,25.66
2018-06-18T11:12:58.976Z,25.40
2018-06-18T11:15:28.614Z,25.55
2018-06-18T11:18:03.393Z,25.17
2018-06-18T11:20:38.143Z,25.40
2018-06-18T11:23:12.974Z,24.77
2018-06-18T11:25:47.783Z,24.23
2018-06-18T11:28:17.388Z,24.38
2018-06-18T11:30:46.922Z,24.32
2018-06-18T11:33:16.545Z,24.46
2018-06-18T11:35:46.121Z,24.96
2018-06-18T11:38:15.582Z,24.88
2018-06-18T11:40:45.196Z,25.40
2018-06-18T11:43:14.700Z,25.60
2018-06-18T11:45:44.558Z,25.52
2018-06-18T11:48:19.561Z,25.87
2018-06-18T11:50:49.560Z,26.10
2018-06-18T11:53:19.896Z,25.40
2018-06-18T11:55:49.384Z,24.88
2018-06-18T11:58:24.301Z,24.55
2018-06-18T12:00:59.093Z,24.15
2018-06-18T12:03:33.824Z,23.98
2018-06-18T12:06:08.317Z,24.25
2018-06-18T12:08:42.905Z,24.13
2018-06-18T12:11:12.454Z,24.63
2018-06-18T12:13:42.002Z,24.96
2018-06-18T12:16:11.510Z,25.56
2018-06-18T12:18:40.975Z,25.25
2018-06-18T12:21:10.531Z,25.79
2018-06-18T12:23:40.057Z,26.46
2018-06-18T12:26:09.627Z,26.14
2018-06-18T12:28:39.155Z,25.93
2018-06-18T12:31:08.916Z,26.44
2018-06-18T12:33:38.774Z,26.97
2018-06-18T12:36:10.020Z,26.71
2018-06-18T12:38:39.563Z,27.38
2018-06-18T12:41:10.053Z,27.82
2018-06-18T12:43:42.685Z,28.17
2018-06-18T12:46:17.336Z,27.42
2018-06-18T12:48:51.894Z,26.67
2018-06-18T12:51:26.524Z,26.69
2018-06-18T12:54:01.148Z,26.79
2018-06-18T12:56:35.878Z,26.63
2018-06-18T12:59:05.458Z,26.28
2018-06-18T13:01:38.153Z,26.17
2018-06-18T13:04:09.187Z,24.71
2018-06-18T13:06:38.760Z,24.44
2018-06-18T13:09:09.734Z,24.16
2018-06-18T13:11:39.207Z,23.87
2018-06-18T13:14:08.789Z,23.22
2018-06-18T13:16:38.357Z,23.31
2018-06-18T13:19:07.910Z,23.03
2018-06-18T13:21:37.488Z,22.84
2018-06-18T13:24:07.019Z,22.78
2018-06-18T13:26:36.447Z,22.91
2018-06-18T13:29:06.006Z,23.05
2018-06-18T13:31:35.917Z,23.63
2018-06-18T13:34:05.435Z,23.75
2018-06-18T13:36:35.000Z,24.80
2018-06-18T13:39:11.962Z,24.67
2018-06-18T13:41:46.723Z,25.85
2018-06-18T13:44:21.458Z,25.52
2018-06-18T13:46:56.104Z,25.68
2018-06-18T13:49:29.693Z,26.49
2018-06-18T13:51:59.765Z,28.08
2018-06-18T13:54:29.288Z,28.63
2018-06-18T13:56:58.923Z,29.29
2018-06-18T13:59:29.284Z,29.79
2018-06-18T14:01:59.149Z,28.86
2018-06-18T14:04:28.718Z,29.57
2018-06-18T14:06:58.162Z,28.68
2018-06-18T14:09:27.721Z,28.18
2018-06-18T14:11:57.169Z,28.22
2018-06-18T14:14:27.774Z,29.13
2018-06-18T14:16:57.303Z,28.42
2018-06-18T14:19:32.116Z,27.93
2018-06-18T14:22:01.607Z,28.38
2018-06-18T14:24:31.236Z,28.37
2018-06-18T14:27:00.716Z,27.91
2018-06-18T14:29:35.190Z,27.26
2018-06-18T14:32:04.804Z,27.29
2018-06-18T14:34:39.407Z,26.76
2018-06-18T14:37:14.110Z,27.12
2018-06-18T14:39:48.794Z,26.14
2018-06-18T14:42:18.341Z,25.87
2018-06-18T14:44:47.639Z,25.67
2018-06-18T14:47:17.083Z,25.43
2018-06-18T14:49:46.663Z,25.43
2018-06-18T14:52:16.187Z,24.73
2018-06-18T14:54:45.560Z,24.85
2018-06-18T14:57:15.214Z,24.42
2018-06-18T14:59:53.080Z,24.66
2018-06-18T15:02:22.636Z,24.62
2018-06-18T15:04:52.118Z,24.68
2018-06-18T15:07:21.718Z,24.60
2018-06-18T15:09:51.166Z,24.45
2018-06-18T15:12:24.060Z,24.45
2018-06-18T15:14:58.915Z,24.77
2018-06-18T15:17:28.492Z,24.89
2018-06-18T15:19:57.935Z,25.35
2018-06-18T15:22:31.301Z,25.15
2018-06-18T15:25:05.304Z,25.80
2018-06-18T15:27:34.822Z,25.91
2018-06-18T15:30:04.419Z,26.11
2018-06-18T15:32:33.863Z,26.11
2018-06-18T15:35:03.311Z,26.28
2018-06-18T15:37:32.753Z,26.42
2018-06-18T15:40:02.325Z,26.52
2018-06-18T15:42:31.767Z,26.74
2018-06-18T15:45:01.210Z,26.61
2018-06-18T15:47:30.671Z,25.68
2018-06-18T15:50:00.159Z,25.58
2018-06-18T15:52:29.618Z,25.43
2018-06-18T15:54:59.137Z,25.21
2018-06-18T15:57:28.611Z,24.94
2018-06-18T15:59:58.067Z,25.78
2018-06-18T16:02:27.627Z,25.59
2018-06-18T16:04:56.989Z,25.91
2018-06-18T16:07:26.543Z,26.29
2018-06-18T16:09:56.047Z,27.61
2018-06-18T16:12:25.601Z,27.93
2018-06-18T16:14:55.115Z,26.84
2018-06-18T16:17:24.633Z,26.32
2018-06-18T16:19:54.072Z,26.37
2018-06-18T16:22:23.867Z,26.44
2018-06-18T16:24:53.491Z,26.27
2018-06-18T16:27:23.003Z,26.17
2018-06-18T16:29:52.436Z,27.02
2018-06-18T16:32:22.021Z,27.75
2018-06-18T16:34:51.582Z,27.47
2018-06-18T16:37:21.047Z,26.88
2018-06-18T16:39:50.444Z,26.67
2018-06-18T16:42:19.925Z,26.26
2018-06-18T16:44:49.526Z,26.32
2018-06-18T16:47:19.000Z,26.14
2018-06-18T16:49:48.763Z,26.62
2018-06-18T16:52:18.222Z,26.81
2018-06-18T16:54:47.816Z,27.21
2018-06-18T16:57:17.307Z,28.57
2018-06-18T16:59:46.796Z,28.13
2018-06-18T17:02:16.381Z,28.36
2018-06-18T17:04:46.022Z,28.22
2018-06-18T17:07:15.475Z,28.61
2018-06-18T17:09:44.975Z,26.93
2018-06-18T17:12:14.665Z,27.39
2018-06-18T17:14:44.104Z,27.11
2018-06-18T17:17:13.534Z,26.98
2018-06-18T17:19:43.090Z,26.82
2018-06-18T17:25:29.545Z,25.95
2018-06-18T17:27:59.038Z,26.02
2018-06-18T17:30:28.550Z,25.80
2018-06-18T17:32:58.082Z,26.29
2018-06-18T17:35:27.680Z,25.78
2018-06-18T17:37:57.426Z,26.15
2018-06-18T17:40:26.862Z,26.39
2018-06-18T17:42:56.377Z,26.69
2018-06-18T17:45:25.878Z,25.93
2018-06-18T17:47:55.427Z,25.71
2018-06-18T17:50:24.649Z,25.82
2018-06-18T17:52:54.106Z,25.61
2018-06-18T17:55:23.576Z,25.46
2018-06-18T17:57:53.015Z,25.66
2018-06-18T18:00:22.701Z,25.65
2018-06-18T18:02:52.706Z,25.35
2018-06-18T18:05:22.294Z,25.48
2018-06-18T18:07:51.725Z,25.17
2018-06-18T18:10:21.443Z,25.03
2018-06-18T18:12:51.108Z,24.96
2018-06-18T18:15:20.574Z,24.89
2018-06-18T18:17:50.059Z,24.74
2018-06-18T18:20:19.748Z,24.76
2018-06-18T18:22:49.407Z,24.78
2018-06-18T18:25:18.864Z,24.81
2018-06-18T18:27:48.408Z,24.54
2018-06-18T18:30:18.119Z,24.51
2018-06-18T18:32:47.995Z,24.82
2018-06-18T18:35:17.453Z,24.62
2018-06-18T18:37:46.931Z,24.87
2018-06-18T18:40:16.808Z,24.61
2018-06-18T18:42:46.338Z,24.47
2018-06-18T18:45:15.809Z,24.24
2018-06-18T18:47:45.255Z,24.21
2018-06-18T18:50:14.816Z,24.10
2018-06-18T18:52:45.472Z,24.33
2018-06-18T18:55:44.368Z,24.06
2018-06-18T18:58:31.729Z,24.30
2018-06-18T19:01:01.489Z,24.22
2018-06-18T19:03:31.192Z,23.94
2018-06-18T19:06:01.247Z,23.68
2018-06-18T19:08:32.581Z,23.64
2018-06-18T19:11:04.893Z,23.74
2018-06-18T19:13:37.408Z,23.57
2018-06-18T19:16:08.263Z,23.49
2018-06-18T19:18:39.230Z,23.50
2018-06-18T19:21:10.933Z,23.60
2018-06-18T19:23:40.496Z,23.38
2018-06-18T19:26:09.917Z,23.59
2018-06-18T19:28:39.572Z,23.53
2018-06-18T19:31:20.061Z,23.38
2018-06-18T19:34:27.346Z,23.33
2018-06-18T19:36:58.793Z,23.31
2018-06-18T19:39:32.827Z,23.19
2018-06-18T19:42:02.460Z,23.11
2018-06-18T19:44:32.157Z,22.98
2018-06-18T19:47:17.281Z,22.96
2018-06-18T19:49:47.194Z,22.88
2018-06-18T19:52:17.205Z,23.00
2018-06-18T19:54:52.684Z,23.13
2018-06-18T19:57:22.562Z,23.06
2018-06-18T19:59:52.111Z,23.03
2018-06-18T20:02:22.627Z,22.95
2018-06-18T20:04:53.536Z,23.00
2018-06-18T20:07:25.679Z,22.79
2018-06-18T20:09:57.314Z,22.76
2018-06-18T20:12:28.346Z,22.85
2018-06-18T20:14:57.868Z,22.85
2018-06-18T20:17:27.419Z,22.62
2018-06-18T20:19:57.047Z,22.71
2018-06-18T20:22:26.934Z,22.76
2018-06-18T20:24:56.545Z,22.88
2018-06-18T20:27:26.056Z,22.84
2018-06-18T20:29:55.580Z,22.78
2018-06-18T20:32:25.070Z,22.77
2018-06-18T20:34:54.653Z,22.53
2018-06-18T20:37:24.109Z,22.57
2018-06-18T20:39:54.064Z,22.70
2018-06-18T20:42:23.661Z,22.53
2018-06-18T20:44:53.105Z,22.60
2018-06-18T20:47:22.533Z,22.60
2018-06-18T20:49:52.129Z,22.45
2018-06-18T20:52:21.723Z,22.36
2018-06-18T20:54:51.194Z,22.38
2018-06-18T20:57:20.699Z,22.33
2018-06-18T20:59:50.330Z,22.15
2018-06-18T21:02:19.899Z,21.88
2018-06-18T21:04:49.365Z,21.76
2018-06-18T21:07:18.817Z,21.87
2018-06-18T21:09:48.520Z,21.59
2018-06-18T21:12:17.991Z,21.62
2018-06-18T21:14:47.445Z,21.56
2018-06-18T21:17:17.079Z,21.73
2018-06-18T21:19:46.948Z,21.60
2018-06-18T21:22:16.444Z,21.65
2018-06-18T21:24:57.741Z,21.71
2018-06-18T21:27:27.277Z,21.45
2018-06-18T21:29:56.792Z,21.05
2018-06-18T21:32:26.347Z,21.34
2018-06-18T21:34:55.967Z,21.28
2018-06-18T21:37:25.419Z,21.13
2018-06-18T21:39:54.871Z,21.04
2018-06-18T21:42:24.503Z,20.97
2018-06-18T21:45:06.306Z,21.20
2018-06-18T21:47:35.842Z,20.95
2018-06-18T21:50:05.622Z,20.70
2018-06-18T21:52:35.126Z,21.01
2018-06-18T21:55:04.632Z,20.80
2018-06-18T21:57:34.159Z,20.83
2018-06-18T22:00:04.044Z,20.88
2018-06-18T22:02:33.512Z,20.79
2018-06-18T22:05:02.966Z,20.61
2018-06-18T22:07:32.567Z,20.80
2018-06-18T22:10:02.170Z,20.76
2018-06-18T22:12:31.652Z,20.58
2018-06-18T22:15:01.099Z,20.58
2018-06-18T22:17:30.682Z,20.61
2018-06-18T22:20:00.735Z,20.81
2018-06-18T22:22:30.263Z,20.48
2018-06-18T22:24:59.462Z,20.53
2018-06-18T22:27:29.312Z,20.40
2018-06-18T22:29:58.980Z,20.51
2018-06-18T22:32:28.453Z,20.41
2018-06-18T22:34:57.928Z,20.29
2018-06-18T22:37:27.507Z,20.32
2018-06-18T22:39:56.966Z,20.05
2018-06-18T22:42:26.465Z,20.11
2018-06-18T22:44:56.008Z,20.04
2018-06-18T22:47:25.524Z,20.14
2018-06-18T22:49:54.975Z,20.02
2018-06-18T22:52:24.437Z,20.07
2018-06-18T22:54:54.141Z,20.08
2018-06-18T22:57:23.617Z,20.21
2018-06-18T22:59:53.090Z,20.12
2018-06-18T23:02:26.562Z,20.12
2018-06-18T23:04:56.075Z,19.98
2018-06-18T23:07:25.583Z,19.93
2018-06-18T23:09:55.250Z,19.82
2018-06-18T23:16:10.510Z,19.83
2018-06-18T23:18:39.960Z,19.69
2018-06-18T23:21:09.613Z,19.76
2018-06-18T23:23:39.347Z,19.75
2018-06-18T23:26:08.795Z,19.59
2018-06-18T23:28:48.306Z,19.58
2018-06-18T23:31:17.719Z,19.53
2018-06-18T23:33:47.363Z,19.53
2018-06-18T23:36:16.867Z,19.31
2018-06-18T23:38:46.348Z,19.25
2018-06-18T23:41:15.843Z,19.24
2018-06-18T23:43:45.366Z,19.43
2018-06-18T23:46:14.878Z,19.36
2018-06-18T23:48:44.447Z,19.34
2018-06-18T23:51:14.266Z,19.11
2018-06-18T23:53:43.967Z,19.08
2018-06-18T23:56:13.593Z,19.12
2018-06-18T23:58:43.050Z,19.05
